sensor_id;sensor_type;location;lat;lon;timestamp;pressure;altitude;pressure_sealevel;temperature;humidity
82262;BME280;71861;52.364;6.580;2024-02-23T04:02:38;98962.31;;;4.18;100.00
82262;BME280;71861;52.364;6.580;2024-02-23T04:05:04;98961.50;;;4.17;100.00
82262;BME280;71861;52.364;6.580;2024-02-23T04:07:29;98962.47;;;4.16;100.00
82262;BME280;71861;52.364;6.580;2024-02-23T04:09:54;98971.44;;;4.20;100.00
82262;BME280;71861;52.364;6.580;2024-02-23T04:12:21;98973.03;;;4.21;100.00
82262;BME280;71861;52.364;6.580;2024-02-23T04:14:46;98973.38;;;4.26;100.00
82262;BME280;71861;52.364;6.580;2024-02-23T04:17:12;98957.78;;;4.28;100.00
82262;BME280;71861;52.364;6.580;2024-02-23T04:19:37;98988.47;;;4.29;100.00
82262;BME280;71861;52.364;6.580;2024-02-23T04:22:03;98988.47;;;4.29;100.00
82262;BME280;71861;52.364;6.580;2024-02-23T04:24:29;98992.50;;;4.32;100.00
82262;BME280;71861;52.364;6.580;2024-02-23T04:26:54;98987.19;;;4.33;100.00
82262;BME280;71861;52.364;6.580;2024-02-23T04:29:19;98997.31;;;4.35;100.00
82262;BME280;71861;52.364;6.580;2024-02-23T04:31:45;99007.59;;;4.35;100.00
82262;BME280;71861;52.364;6.580;2024-02-23T04:34:10;98999.06;;;4.34;100.00
82262;BME280;71861;52.364;6.580;2024-02-23T04:36:35;99007.44;;;4.36;100.00
82262;BME280;71861;52.364;6.580;2024-02-23T04:39:01;99011.13;;;4.34;100.00
82262;BME280;71861;52.364;6.580;2024-02-23T04:41:26;99010.34;;;4.33;100.00
82262;BME280;71861;52.364;6.580;2024-02-23T04:43:51;99014.50;;;4.34;100.00
82262;BME280;71861;52.364;6.580;2024-02-23T04:46:18;99016.25;;;4.34;100.00
82262;BME280;71861;52.364;6.580;2024-02-23T04:48:43;99024.78;;;4.34;100.00
82262;BME280;71861;52.364;6.580;2024-02-23T04:51:09;99023.03;;;4.35;100.00
82262;BME280;71861;52.364;6.580;2024-02-23T04:53:37;99032.19;;;4.37;100.00
82262;BME280;71861;52.364;6.580;2024-02-23T04:56:03;99032.19;;;4.37;100.00
82262;BME280;71861;52.364;6.580;2024-02-23T04:58:28;99033.00;;;4.38;100.00
82262;BME280;71861;52.364;6.580;2024-02-23T05:00:53;99032.19;;;4.37;100.00
82262;BME280;71861;52.364;6.580;2024-02-23T05:03:20;99034.91;;;4.36;100.00
82262;BME280;71861;52.364;6.580;2024-02-23T05:05:46;99026.56;;;4.34;100.00
82262;BME280;71861;52.364;6.580;2024-02-23T05:08:11;99050.34;;;4.36;100.00
82262;BME280;71861;52.364;6.580;2024-02-23T05:10:36;99041.81;;;4.35;100.00
82262;BME280;71861;52.364;6.580;2024-02-23T05:13:02;99044.38;;;4.35;100.00
82262;BME280;71861;52.364;6.580;2024-02-23T05:15:27;99040.72;;;4.30;100.00
82262;BME280;71861;52.364;6.580;2024-02-23T05:17:52;99040.06;;;4.28;100.00
82262;BME280;71861;52.364;6.580;2024-02-23T05:20:17;99026.88;;;4.23;100.00
82262;BME280;71861;52.364;6.580;2024-02-23T05:22:43;99027.03;;;4.29;100.00
82262;BME280;71861;52.364;6.580;2024-02-23T05:25:08;99064.97;;;4.35;100.00
82262;BME280;71861;52.364;6.580;2024-02-23T05:27:34;99043.13;;;4.31;100.00
82262;BME280;71861;52.364;6.580;2024-02-23T05:29:59;99054.22;;;4.32;100.00
82262;BME280;71861;52.364;6.580;2024-02-23T05:32:25;99059.97;;;4.26;100.00
82262;BME280;71861;52.364;6.580;2024-02-23T05:34:50;99056.44;;;4.19;100.00
82262;BME280;71861;52.364;6.580;2024-02-23T05:37:18;99064.31;;;4.09;100.00
82262;BME280;71861;52.364;6.580;2024-02-23T05:39:43;99057.56;;;4.08;100.00
82262;BME280;71861;52.364;6.580;2024-02-23T05:42:11;99071.53;;;4.14;100.00
82262;BME280;71861;52.364;6.580;2024-02-23T05:44:37;99040.34;;;4.09;100.00
82262;BME280;71861;52.364;6.580;2024-02-23T05:47:02;99062.41;;;4.11;100.00
82262;BME280;71861;52.364;6.580;2024-02-23T05:49:28;99055.94;;;4.07;100.00
82262;BME280;71861;52.364;6.580;2024-02-23T05:51:53;99063.22;;;4.12;100.00
82262;BME280;71861;52.364;6.580;2024-02-23T05:54:18;99059.66;;;4.13;100.00
82262;BME280;71861;52.364;6.580;2024-02-23T05:56:44;99061.41;;;4.12;100.00
82262;BME280;71861;52.364;6.580;2024-02-23T05:59:10;99063.66;;;4.15;100.00
82262;BME280;71861;52.364;6.580;2024-02-23T06:01:36;99074.75;;;4.16;100.00
82262;BME280;71861;52.364;6.580;2024-02-23T06:04:01;99065.63;;;4.13;100.00
82262;BME280;71861;52.364;6.580;2024-02-23T06:06:28;99075.25;;;4.19;100.00
82262;BME280;71861;52.364;6.580;2024-02-23T06:08:53;99070.28;;;4.18;100.00
82262;BME280;71861;52.364;6.580;2024-02-23T06:11:18;99069.78;;;4.22;100.00
82262;BME280;71861;52.364;6.580;2024-02-23T06:13:44;99080.09;;;4.22;100.00
82262;BME280;71861;52.364;6.580;2024-02-23T06:16:10;99087.47;;;4.25;100.00
82262;BME280;71861;52.364;6.580;2024-02-23T06:18:35;99077.81;;;4.27;100.00
82262;BME280;71861;52.364;6.580;2024-02-23T06:21:01;99085.38;;;4.29;100.00
82262;BME280;71861;52.364;6.580;2024-02-23T06:23:27;99085.19;;;4.30;100.00
82262;BME280;71861;52.364;6.580;2024-02-23T06:25:52;99095.34;;;4.32;100.00
82262;BME280;71861;52.364;6.580;2024-02-23T06:28:18;99092.78;;;4.32;100.00
82262;BME280;71861;52.364;6.580;2024-02-23T06:30:43;99094.06;;;4.36;100.00
82262;BME280;71861;52.364;6.580;2024-02-23T06:33:08;99092.75;;;4.40;100.00
82262;BME280;71861;52.364;6.580;2024-02-23T06:35:33;99094.06;;;4.44;100.00
82262;BME280;71861;52.364;6.580;2024-02-23T06:37:59;99107.53;;;4.46;100.00
82262;BME280;71861;52.364;6.580;2024-02-23T06:40:24;99102.56;;;4.44;100.00
82262;BME280;71861;52.364;6.580;2024-02-23T06:42:50;99101.28;;;4.48;100.00
82262;BME280;71861;52.364;6.580;2024-02-23T06:45:15;99102.91;;;4.49;100.00
82262;BME280;71861;52.364;6.580;2024-02-23T06:47:41;99098.56;;;4.50;100.00
82262;BME280;71861;52.364;6.580;2024-02-23T06:50:07;99089.72;;;4.52;100.00
82262;BME280;71861;52.364;6.580;2024-02-23T06:52:34;99103.06;;;4.56;100.00
82262;BME280;71861;52.364;6.580;2024-02-23T06:54:59;99095.19;;;4.57;100.00
82262;BME280;71861;52.364;6.580;2024-02-23T06:57:24;99099.34;;;4.58;100.00
82262;BME280;71861;52.364;6.580;2024-02-23T06:59:51;99117.84;;;4.62;100.00
82262;BME280;71861;52.364;6.580;2024-02-23T07:02:16;99117.69;;;4.63;100.00
82262;BME280;71861;52.364;6.580;2024-02-23T07:04:42;99106.41;;;4.64;100.00
82262;BME280;71861;52.364;6.580;2024-02-23T07:07:07;99111.88;;;4.69;100.00
82262;BME280;71861;52.364;6.580;2024-02-23T07:09:34;99109.31;;;4.69;100.00
82262;BME280;71861;52.364;6.580;2024-02-23T07:11:59;99105.78;;;4.70;100.00
82262;BME280;71861;52.364;6.580;2024-02-23T07:14:25;99110.13;;;4.70;100.00
82262;BME280;71861;52.364;6.580;2024-02-23T07:16:50;99112.88;;;4.76;100.00
82262;BME280;71861;52.364;6.580;2024-02-23T07:19:17;99104.81;;;4.79;100.00
82262;BME280;71861;52.364;6.580;2024-02-23T07:21:43;99106.09;;;4.83;100.00
82262;BME280;71861;52.364;6.580;2024-02-23T07:24:08;99106.75;;;4.85;100.00
82262;BME280;71861;52.364;6.580;2024-02-23T07:26:34;99111.56;;;4.88;99.35
82262;BME280;71861;52.364;6.580;2024-02-23T07:28:59;99099.63;;;4.87;99.91
82262;BME280;71861;52.364;6.580;2024-02-23T07:31:25;99116.38;;;4.99;100.00
82262;BME280;71861;52.364;6.580;2024-02-23T07:33:50;99111.69;;;5.03;99.73
82262;BME280;71861;52.364;6.580;2024-02-23T07:36:16;99103.13;;;5.10;98.40
82262;BME280;71861;52.364;6.580;2024-02-23T07:38:42;99100.88;;;5.15;98.39
82262;BME280;71861;52.364;6.580;2024-02-23T07:41:09;99100.38;;;5.20;97.88
82262;BME280;71861;52.364;6.580;2024-02-23T07:43:34;99105.03;;;5.25;98.69
82262;BME280;71861;52.364;6.580;2024-02-23T07:46:01;99096.34;;;5.26;97.97
82262;BME280;71861;52.364;6.580;2024-02-23T07:48:27;99111.13;;;5.32;98.40
82262;BME280;71861;52.364;6.580;2024-02-23T07:50:52;99103.06;;;5.35;96.65
82262;BME280;71861;52.364;6.580;2024-02-23T07:53:18;99109.00;;;5.43;96.96
82262;BME280;71861;52.364;6.580;2024-02-23T07:55:43;99096.41;;;5.48;96.49
82262;BME280;71861;52.364;6.580;2024-02-23T07:58:09;99095.75;;;5.54;96.36
82262;BME280;71861;52.364;6.580;2024-02-23T08:00:34;99079.78;;;5.59;94.48
82262;BME280;71861;52.364;6.580;2024-02-23T08:03:03;99098.28;;;5.62;94.43
82262;BME280;71861;52.364;6.580;2024-02-23T08:05:28;99096.03;;;5.67;93.83
82262;BME280;71861;52.364;6.580;2024-02-23T08:07:53;99091.66;;;5.68;92.31
82262;BME280;71861;52.364;6.580;2024-02-23T08:10:19;99103.25;;;5.72;90.89
82262;BME280;71861;52.364;6.580;2024-02-23T08:12:44;99106.78;;;5.71;90.54
82262;BME280;71861;52.364;6.580;2024-02-23T08:15:09;99100.97;;;5.77;90.02
82262;BME280;71861;52.364;6.580;2024-02-23T08:17:35;99092.59;;;5.83;91.28
82262;BME280;71861;52.364;6.580;2024-02-23T08:20:00;99090.00;;;5.83;89.60
82262;BME280;71861;52.364;6.580;2024-02-23T08:22:26;99090.94;;;5.90;90.64
82262;BME280;71861;52.364;6.580;2024-02-23T08:24:51;99100.81;;;6.09;89.47
82262;BME280;71861;52.364;6.580;2024-02-23T08:27:16;99095.13;;;6.13;87.81
82262;BME280;71861;52.364;6.580;2024-02-23T08:29:41;99087.28;;;6.29;87.15
82262;BME280;71861;52.364;6.580;2024-02-23T08:32:07;99079.47;;;6.60;86.98
82262;BME280;71861;52.364;6.580;2024-02-23T08:34:33;99080.28;;;6.90;86.53
82262;BME280;71861;52.364;6.580;2024-02-23T08:36:59;99083.97;;;6.95;83.86
82262;BME280;71861;52.364;6.580;2024-02-23T08:39:25;99079.25;;;7.28;83.24
82262;BME280;71861;52.364;6.580;2024-02-23T08:41:50;99076.19;;;7.68;82.08
82262;BME280;71861;52.364;6.580;2024-02-23T08:44:16;99074.34;;;7.83;80.35
82262;BME280;71861;52.364;6.580;2024-02-23T08:46:42;99066.81;;;7.67;80.23
82262;BME280;71861;52.364;6.580;2024-02-23T08:49:07;99061.56;;;7.60;79.39
82262;BME280;71861;52.364;6.580;2024-02-23T08:51:34;99068.81;;;7.50;81.63
82262;BME280;71861;52.364;6.580;2024-02-23T08:53:59;99059.91;;;7.38;82.31
82262;BME280;71861;52.364;6.580;2024-02-23T08:56:29;99056.50;;;7.52;83.03
82262;BME280;71861;52.364;6.580;2024-02-23T08:58:54;99049.88;;;7.64;81.11
82262;BME280;71861;52.364;6.580;2024-02-23T09:01:20;99053.31;;;7.71;79.29
82262;BME280;71861;52.364;6.580;2024-02-23T09:03:45;99043.88;;;7.78;79.12
82262;BME280;71861;52.364;6.580;2024-02-23T09:06:10;99044.13;;;7.83;78.22
82262;BME280;71861;52.364;6.580;2024-02-23T09:08:36;99052.66;;;7.84;78.26
82262;BME280;71861;52.364;6.580;2024-02-23T09:11:01;99051.72;;;7.85;78.22
82262;BME280;71861;52.364;6.580;2024-02-23T09:13:27;99063.28;;;7.89;77.82
82262;BME280;71861;52.364;6.580;2024-02-23T09:15:54;99056.53;;;7.73;78.07
82262;BME280;71861;52.364;6.580;2024-02-23T09:18:20;99052.75;;;7.55;77.09
82262;BME280;71861;52.364;6.580;2024-02-23T09:20:45;99056.03;;;7.63;79.50
82262;BME280;71861;52.364;6.580;2024-02-23T09:23:10;99049.41;;;7.75;78.50
82262;BME280;71861;52.364;6.580;2024-02-23T09:25:37;99043.63;;;7.59;77.80
82262;BME280;71861;52.364;6.580;2024-02-23T09:28:03;99043.72;;;7.65;76.63
82262;BME280;71861;52.364;6.580;2024-02-23T09:30:29;99036.50;;;7.61;77.81
82262;BME280;71861;52.364;6.580;2024-02-23T09:32:55;99057.75;;;7.77;78.26
82262;BME280;71861;52.364;6.580;2024-02-23T09:35:20;99048.50;;;7.83;76.78
82262;BME280;71861;52.364;6.580;2024-02-23T09:37:45;99070.31;;;7.80;75.96
82262;BME280;71861;52.364;6.580;2024-02-23T09:40:11;99060.66;;;7.68;77.08
82262;BME280;71861;52.364;6.580;2024-02-23T09:42:37;99061.41;;;7.62;77.39
82262;BME280;71861;52.364;6.580;2024-02-23T09:45:05;99052.31;;;7.51;76.60
82262;BME280;71861;52.364;6.580;2024-02-23T09:47:31;99059.56;;;7.41;76.54
82262;BME280;71861;52.364;6.580;2024-02-23T09:49:56;99071.56;;;7.34;77.02
82262;BME280;71861;52.364;6.580;2024-02-23T09:52:22;99075.78;;;7.35;78.45
82262;BME280;71861;52.364;6.580;2024-02-23T09:54:48;99070.50;;;7.29;76.32
82262;BME280;71861;52.364;6.580;2024-02-23T09:57:15;99045.56;;;7.36;77.57
82262;BME280;71861;52.364;6.580;2024-02-23T09:59:41;99067.03;;;7.36;77.49
82262;BME280;71861;52.364;6.580;2024-02-23T10:02:14;99078.63;;;7.40;78.71
82262;BME280;71861;52.364;6.580;2024-02-23T10:04:40;99077.19;;;7.38;77.69
82262;BME280;71861;52.364;6.580;2024-02-23T10:07:07;99074.59;;;7.38;78.96
82262;BME280;71861;52.364;6.580;2024-02-23T10:09:32;99074.16;;;7.34;79.02
82262;BME280;71861;52.364;6.580;2024-02-23T10:11:57;99083.63;;;7.27;78.12
82262;BME280;71861;52.364;6.580;2024-02-23T10:14:23;99074.09;;;7.28;78.64
82262;BME280;71861;52.364;6.580;2024-02-23T10:16:48;99081.94;;;7.20;78.92
82262;BME280;71861;52.364;6.580;2024-02-23T10:19:19;99081.13;;;7.19;78.86
82262;BME280;71861;52.364;6.580;2024-02-23T10:21:45;99085.66;;;7.17;79.26
82262;BME280;71861;52.364;6.580;2024-02-23T10:24:10;99081.66;;;7.15;79.55
82262;BME280;71861;52.364;6.580;2024-02-23T10:26:36;99080.25;;;7.12;78.67
82262;BME280;71861;52.364;6.580;2024-02-23T10:29:01;99080.25;;;7.12;79.53
82262;BME280;71861;52.364;6.580;2024-02-23T10:31:28;99084.13;;;7.08;80.24
82262;BME280;71861;52.364;6.580;2024-02-23T10:33:56;99105.97;;;7.06;80.61
82262;BME280;71861;52.364;6.580;2024-02-23T10:36:24;99108.38;;;7.07;81.26
82262;BME280;71861;52.364;6.580;2024-02-23T10:38:53;99086.13;;;7.06;80.24
82262;BME280;71861;52.364;6.580;2024-02-23T10:41:22;99109.53;;;7.05;80.62
82262;BME280;71861;52.364;6.580;2024-02-23T10:43:48;99107.13;;;7.03;80.97
82262;BME280;71861;52.364;6.580;2024-02-23T10:46:14;99108.72;;;7.04;80.81
82262;BME280;71861;52.364;6.580;2024-02-23T10:48:44;99118.06;;;7.05;81.67
82262;BME280;71861;52.364;6.580;2024-02-23T10:51:10;99112.31;;;7.03;80.79
82262;BME280;71861;52.364;6.580;2024-02-23T10:53:39;99117.09;;;7.06;81.37
82262;BME280;71861;52.364;6.580;2024-02-23T10:56:05;99121.22;;;7.15;82.33
82262;BME280;71861;52.364;6.580;2024-02-23T10:58:31;99095.19;;;7.17;81.23
82262;BME280;71861;52.364;6.580;2024-02-23T11:01:01;99090.50;;;7.20;80.92
82262;BME280;71861;52.364;6.580;2024-02-23T11:03:32;99112.47;;;7.16;81.30
82262;BME280;71861;52.364;6.580;2024-02-23T11:05:59;99105.25;;;7.12;81.92
82262;BME280;71861;52.364;6.580;2024-02-23T11:08:28;99110.50;;;7.04;84.67
82262;BME280;71861;52.364;6.580;2024-02-23T11:10:53;99114.06;;;7.03;85.68
82262;BME280;71861;52.364;6.580;2024-02-23T11:13:29;99134.69;;;6.88;87.90
82262;BME280;71861;52.364;6.580;2024-02-23T11:16:01;99143.56;;;6.71;90.17
82262;BME280;71861;52.364;6.580;2024-02-23T11:18:30;99154.78;;;6.55;92.43
82262;BME280;71861;52.364;6.580;2024-02-23T11:21:02;99150.59;;;6.40;94.28
82262;BME280;71861;52.364;6.580;2024-02-23T11:23:43;99153.38;;;6.30;95.06
82262;BME280;71861;52.364;6.580;2024-02-23T11:26:12;99157.44;;;6.25;96.38
82262;BME280;71861;52.364;6.580;2024-02-23T11:28:42;99164.09;;;6.19;96.87
82262;BME280;71861;52.364;6.580;2024-02-23T11:31:15;99153.69;;;6.05;98.57
82262;BME280;71861;52.364;6.580;2024-02-23T11:33:48;99189.28;;;6.09;98.76
82262;BME280;71861;52.364;6.580;2024-02-23T11:36:27;99158.28;;;5.87;100.00
82262;BME280;71861;52.364;6.580;2024-02-23T11:38:54;99173.44;;;5.82;100.00
82262;BME280;71861;52.364;6.580;2024-02-23T11:41:22;99164.44;;;5.78;100.00
82262;BME280;71861;52.364;6.580;2024-02-23T11:43:48;99157.47;;;5.86;100.00
82262;BME280;71861;52.364;6.580;2024-02-23T11:46:15;99170.16;;;5.96;100.00
82262;BME280;71861;52.364;6.580;2024-02-23T11:48:41;99164.00;;;6.05;100.00
82262;BME280;71861;52.364;6.580;2024-02-23T11:51:06;99170.59;;;6.07;100.00
82262;BME280;71861;52.364;6.580;2024-02-23T11:53:32;99164.13;;;6.11;100.00
82262;BME280;71861;52.364;6.580;2024-02-23T11:55:58;99165.56;;;6.14;100.00
82262;BME280;71861;52.364;6.580;2024-02-23T11:58:23;99166.38;;;6.14;100.00
82262;BME280;71861;52.364;6.580;2024-02-23T12:00:50;99160.09;;;6.17;100.00
82262;BME280;71861;52.364;6.580;2024-02-23T12:03:16;99156.00;;;6.22;100.00
82262;BME280;71861;52.364;6.580;2024-02-23T12:05:42;99144.25;;;6.20;99.54
82262;BME280;71861;52.364;6.580;2024-02-23T12:08:08;99161.63;;;6.26;100.00
82262;BME280;71861;52.364;6.580;2024-02-23T12:10:33;99155.84;;;6.24;98.86
82262;BME280;71861;52.364;6.580;2024-02-23T12:12:59;99158.25;;;6.25;97.62
82262;BME280;71861;52.364;6.580;2024-02-23T12:15:25;99164.31;;;6.32;96.73
82262;BME280;71861;52.364;6.580;2024-02-23T12:17:50;99156.41;;;6.34;97.83
82262;BME280;71861;52.364;6.580;2024-02-23T12:20:16;99174.47;;;6.34;97.03
82262;BME280;71861;52.364;6.580;2024-02-23T12:22:41;99168.34;;;6.35;97.16
82262;BME280;71861;52.364;6.580;2024-02-23T12:25:07;99177.69;;;6.36;96.72
82262;BME280;71861;52.364;6.580;2024-02-23T12:27:33;99168.00;;;6.38;95.18
82262;BME280;71861;52.364;6.580;2024-02-23T12:29:58;99193.47;;;6.41;94.71
82262;BME280;71861;52.364;6.580;2024-02-23T12:32:24;99187.78;;;6.45;95.70
82262;BME280;71861;52.364;6.580;2024-02-23T12:34:50;99178.53;;;6.51;94.58
82262;BME280;71861;52.364;6.580;2024-02-23T12:37:21;99178.03;;;6.55;93.60
82262;BME280;71861;52.364;6.580;2024-02-23T12:39:49;99193.03;;;6.60;93.99
82262;BME280;71861;52.364;6.580;2024-02-23T12:42:14;99188.13;;;6.65;93.71
82262;BME280;71861;52.364;6.580;2024-02-23T12:44:40;99185.31;;;6.74;92.97
82262;BME280;71861;52.364;6.580;2024-02-23T12:47:05;99185.09;;;6.84;91.90
82262;BME280;71861;52.364;6.580;2024-02-23T12:49:31;99180.88;;;7.06;92.79
82262;BME280;71861;52.364;6.580;2024-02-23T12:51:56;99182.84;;;7.18;89.27
82262;BME280;71861;52.364;6.580;2024-02-23T12:54:22;99177.34;;;7.21;90.01
82262;BME280;71861;52.364;6.580;2024-02-23T12:56:47;99178.75;;;7.24;89.12
82262;BME280;71861;52.364;6.580;2024-02-23T12:59:12;99189.25;;;7.22;88.83
82262;BME280;71861;52.364;6.580;2024-02-23T13:01:37;99192.19;;;7.19;88.35
82262;BME280;71861;52.364;6.580;2024-02-23T13:04:04;99195.94;;;7.17;89.09
82262;BME280;71861;52.364;6.580;2024-02-23T13:06:38;99184.16;;;7.14;88.53
82262;BME280;71861;52.364;6.580;2024-02-23T13:09:04;99197.88;;;7.15;89.10
82262;BME280;71861;52.364;6.580;2024-02-23T13:11:30;99197.88;;;7.15;88.96
82262;BME280;71861;52.364;6.580;2024-02-23T13:13:56;99183.97;;;7.01;87.86
82262;BME280;71861;52.364;6.580;2024-02-23T13:16:21;99213.56;;;7.13;88.96
82262;BME280;71861;52.364;6.580;2024-02-23T13:18:46;99207.41;;;7.14;88.21
82262;BME280;71861;52.364;6.580;2024-02-23T13:21:12;99207.06;;;7.17;90.13
82262;BME280;71861;52.364;6.580;2024-02-23T13:23:38;99180.28;;;7.18;89.20
82262;BME280;71861;52.364;6.580;2024-02-23T13:26:04;99211.28;;;7.18;89.13
82262;BME280;71861;52.364;6.580;2024-02-23T13:28:29;99198.34;;;7.18;87.69
82262;BME280;71861;52.364;6.580;2024-02-23T13:30:55;99187.31;;;7.24;87.67
82262;BME280;71861;52.364;6.580;2024-02-23T13:33:20;99190.59;;;7.18;87.88
82262;BME280;71861;52.364;6.580;2024-02-23T13:35:47;99213.00;;;7.40;88.13
82262;BME280;71861;52.364;6.580;2024-02-23T13:38:12;99204.91;;;7.72;88.82
82262;BME280;71861;52.364;6.580;2024-02-23T13:40:38;99216.34;;;8.13;87.73
82262;BME280;71861;52.364;6.580;2024-02-23T13:43:04;99227.78;;;8.33;85.47
82262;BME280;71861;52.364;6.580;2024-02-23T13:45:29;99230.53;;;8.32;85.29
82262;BME280;71861;52.364;6.580;2024-02-23T13:47:59;99231.97;;;8.34;84.65
82262;BME280;71861;52.364;6.580;2024-02-23T13:50:24;99228.38;;;8.21;84.01
82262;BME280;71861;52.364;6.580;2024-02-23T13:52:50;99237.88;;;8.14;84.47
82262;BME280;71861;52.364;6.580;2024-02-23T13:55:16;99230.47;;;7.96;84.45
82262;BME280;71861;52.364;6.580;2024-02-23T13:57:41;99236.63;;;7.95;84.43
82262;BME280;71861;52.364;6.580;2024-02-23T14:00:07;99240.66;;;7.83;84.03
82262;BME280;71861;52.364;6.580;2024-02-23T14:02:37;99237.44;;;7.81;85.46
82262;BME280;71861;52.364;6.580;2024-02-23T14:05:05;99235.56;;;7.75;85.73
82262;BME280;71861;52.364;6.580;2024-02-23T14:07:35;99243.41;;;7.67;85.95
82262;BME280;71861;52.364;6.580;2024-02-23T14:10:01;99245.72;;;7.62;86.49
82262;BME280;71861;52.364;6.580;2024-02-23T14:12:27;99250.59;;;7.57;86.28
82262;BME280;71861;52.364;6.580;2024-02-23T14:14:53;99238.38;;;7.51;86.30
82262;BME280;71861;52.364;6.580;2024-02-23T14:17:18;99240.44;;;7.41;87.78
82262;BME280;71861;52.364;6.580;2024-02-23T14:19:43;99230.81;;;7.35;87.80
82262;BME280;71861;52.364;6.580;2024-02-23T14:22:09;99238.63;;;7.27;88.56
82262;BME280;71861;52.364;6.580;2024-02-23T14:24:34;99246.91;;;7.23;89.51
82262;BME280;71861;52.364;6.580;2024-02-23T14:26:59;99243.69;;;7.21;89.34
82262;BME280;71861;52.364;6.580;2024-02-23T14:29:25;99249.66;;;7.21;90.33
82262;BME280;71861;52.364;6.580;2024-02-23T14:31:50;99251.25;;;7.22;90.27
82262;BME280;71861;52.364;6.580;2024-02-23T14:34:15;99251.72;;;7.26;90.58
82262;BME280;71861;52.364;6.580;2024-02-23T14:36:41;99250.13;;;7.25;90.00
82262;BME280;71861;52.364;6.580;2024-02-23T14:39:06;99247.09;;;7.21;89.98
82262;BME280;71861;52.364;6.580;2024-02-23T14:41:32;99248.50;;;7.24;89.52
82262;BME280;71861;52.364;6.580;2024-02-23T14:43:57;99246.72;;;7.24;89.43
82262;BME280;71861;52.364;6.580;2024-02-23T14:46:22;99251.72;;;7.26;89.87
82262;BME280;71861;52.364;6.580;2024-02-23T14:48:47;99257.34;;;7.29;90.33
82262;BME280;71861;52.364;6.580;2024-02-23T14:51:14;99259.59;;;7.32;90.31
82262;BME280;71861;52.364;6.580;2024-02-23T14:53:40;99251.72;;;7.26;90.17
82262;BME280;71861;52.364;6.580;2024-02-23T14:56:06;99260.72;;;7.30;89.61
82262;BME280;71861;52.364;6.580;2024-02-23T14:58:31;99258.94;;;7.30;88.04
82262;BME280;71861;52.364;6.580;2024-02-23T15:00:56;99263.13;;;7.31;89.47
82262;BME280;71861;52.364;6.580;2024-02-23T15:03:21;99254.59;;;7.31;89.61
82262;BME280;71861;52.364;6.580;2024-02-23T15:05:47;99266.81;;;7.37;89.77
82262;BME280;71861;52.364;6.580;2024-02-23T15:08:12;99259.84;;;7.37;90.01
82262;BME280;71861;52.364;6.580;2024-02-23T15:10:37;99263.88;;;7.40;89.78
82262;BME280;71861;52.364;6.580;2024-02-23T15:13:03;99271.91;;;7.45;88.65
82262;BME280;71861;52.364;6.580;2024-02-23T15:15:28;99263.97;;;7.46;87.70
82262;BME280;71861;52.364;6.580;2024-02-23T15:17:54;99260.53;;;7.54;87.47
82262;BME280;71861;52.364;6.580;2024-02-23T15:20:20;99262.22;;;7.61;87.33
82262;BME280;71861;52.364;6.580;2024-02-23T15:22:45;99264.91;;;7.68;87.75
82262;BME280;71861;52.364;6.580;2024-02-23T15:25:12;99267.91;;;7.71;86.67
82262;BME280;71861;52.364;6.580;2024-02-23T15:27:37;99271.13;;;7.73;87.47
82262;BME280;71861;52.364;6.580;2024-02-23T15:30:04;99268.72;;;7.72;87.98
82262;BME280;71861;52.364;6.580;2024-02-23T15:32:30;99272.91;;;7.73;87.67
82262;BME280;71861;52.364;6.580;2024-02-23T15:34:55;99271.50;;;7.70;87.05
82262;BME280;71861;52.364;6.580;2024-02-23T15:37:20;99278.63;;;7.68;88.00
82262;BME280;71861;52.364;6.580;2024-02-23T15:39:45;99256.13;;;7.54;87.94
82262;BME280;71861;52.364;6.580;2024-02-23T15:42:12;99283.78;;;7.68;88.99
82262;BME280;71861;52.364;6.580;2024-02-23T15:44:38;99286.13;;;7.63;88.48
82262;BME280;71861;52.364;6.580;2024-02-23T15:47:03;99292.25;;;7.62;89.22
82262;BME280;71861;52.364;6.580;2024-02-23T15:49:29;99283.88;;;7.60;90.10
82262;BME280;71861;52.364;6.580;2024-02-23T15:51:54;99290.72;;;7.53;89.56
82262;BME280;71861;52.364;6.580;2024-02-23T15:54:19;99287.25;;;7.46;89.54
82262;BME280;71861;52.364;6.580;2024-02-23T15:56:46;99294.66;;;7.49;89.15
82262;BME280;71861;52.364;6.580;2024-02-23T15:59:11;99291.78;;;7.44;88.69
82262;BME280;71861;52.364;6.580;2024-02-23T16:01:37;99304.06;;;7.42;89.80
82262;BME280;71861;52.364;6.580;2024-02-23T16:04:03;99307.75;;;7.25;91.79
82262;BME280;71861;52.364;6.580;2024-02-23T16:06:29;99305.91;;;7.11;92.67
82262;BME280;71861;52.364;6.580;2024-02-23T16:08:58;99308.81;;;6.94;93.32
82262;BME280;71861;52.364;6.580;2024-02-23T16:11:24;99302.59;;;6.80;93.59
82262;BME280;71861;52.364;6.580;2024-02-23T16:13:50;99310.72;;;6.69;93.01
82262;BME280;71861;52.364;6.580;2024-02-23T16:16:16;99316.56;;;6.63;93.18
82262;BME280;71861;52.364;6.580;2024-02-23T16:18:41;99319.00;;;6.56;93.35
82262;BME280;71861;52.364;6.580;2024-02-23T16:21:06;99318.22;;;6.48;93.78
82262;BME280;71861;52.364;6.580;2024-02-23T16:23:32;99313.13;;;6.40;94.60
82262;BME280;71861;52.364;6.580;2024-02-23T16:25:57;99316.69;;;6.31;95.76
82262;BME280;71861;52.364;6.580;2024-02-23T16:28:23;99330.09;;;6.26;95.74
82262;BME280;71861;52.364;6.580;2024-02-23T16:30:48;99329.47;;;6.24;97.63
82262;BME280;71861;52.364;6.580;2024-02-23T16:33:14;99339.13;;;6.22;97.82
82262;BME280;71861;52.364;6.580;2024-02-23T16:35:40;99336.72;;;6.21;99.00
82262;BME280;71861;52.364;6.580;2024-02-23T16:38:06;99344.63;;;6.19;98.51
82262;BME280;71861;52.364;6.580;2024-02-23T16:40:31;99345.78;;;6.17;99.59
82262;BME280;71861;52.364;6.580;2024-02-23T16:42:57;99346.56;;;6.17;100.00
82262;BME280;71861;52.364;6.580;2024-02-23T16:45:24;99341.75;;;6.14;100.00
82262;BME280;71861;52.364;6.580;2024-02-23T16:47:49;99349.47;;;6.14;100.00
82262;BME280;71861;52.364;6.580;2024-02-23T16:50:15;99359.97;;;6.13;100.00
82262;BME280;71861;52.364;6.580;2024-02-23T16:52:40;99356.72;;;6.11;100.00
82262;BME280;71861;52.364;6.580;2024-02-23T16:55:06;99361.88;;;6.11;100.00
82262;BME280;71861;52.364;6.580;2024-02-23T16:57:32;99360.28;;;6.10;100.00
82262;BME280;71861;52.364;6.580;2024-02-23T16:59:58;99339.38;;;5.97;100.00
82262;BME280;71861;52.364;6.580;2024-02-23T17:02:23;99360.13;;;6.11;100.00